sensor_id;sensor_type;location;lat;lon;timestamp;pressure;altitude;pressure_sealevel;temperature;humidity
49825;BME280;35714;55.708;37.478;2023-05-19T00:02:16;100020.91;;;17.06;59.77
49825;BME280;35714;55.708;37.478;2023-05-19T00:04:43;100021.97;;;17.05;59.79
49825;BME280;35714;55.708;37.478;2023-05-19T00:07:10;100028.53;;;17.04;60.00
49825;BME280;35714;55.708;37.478;2023-05-19T00:09:36;100029.91;;;17.01;60.29
49825;BME280;35714;55.708;37.478;2023-05-19T00:12:04;100027.94;;;16.97;60.08
49825;BME280;35714;55.708;37.478;2023-05-19T00:14:30;100035.91;;;16.98;60.38
49825;BME280;35714;55.708;37.478;2023-05-19T00:16:56;100033.44;;;16.97;60.28
49825;BME280;35714;55.708;37.478;2023-05-19T00:19:24;100039.16;;;16.95;60.45
49825;BME280;35714;55.708;37.478;2023-05-19T00:21:50;100037.50;;;16.94;60.44
49825;BME280;35714;55.708;37.478;2023-05-19T00:24:15;100044.06;;;16.93;60.35
49825;BME280;35714;55.708;37.478;2023-05-19T00:26:41;100048.16;;;16.90;60.91
49825;BME280;35714;55.708;37.478;2023-05-19T00:29:07;100062.69;;;16.91;60.44
49825;BME280;35714;55.708;37.478;2023-05-19T00:31:32;100054.44;;;16.86;60.61
49825;BME280;35714;55.708;37.478;2023-05-19T00:34:00;100062.66;;;16.86;60.84
49825;BME280;35714;55.708;37.478;2023-05-19T00:36:26;100068.31;;;16.79;60.76
49825;BME280;35714;55.708;37.478;2023-05-19T00:38:52;100055.16;;;16.76;60.27
49825;BME280;35714;55.708;37.478;2023-05-19T00:41:18;100050.13;;;16.68;60.34
49825;BME280;35714;55.708;37.478;2023-05-19T00:43:44;100057.00;;;16.70;60.09
49825;BME280;35714;55.708;37.478;2023-05-19T00:46:09;100063.50;;;16.64;60.15
49825;BME280;35714;55.708;37.478;2023-05-19T00:48:35;100054.69;;;16.57;60.24
49825;BME280;35714;55.708;37.478;2023-05-19T00:51:02;100067.03;;;16.59;60.24
49825;BME280;35714;55.708;37.478;2023-05-19T00:53:32;100062.91;;;16.57;59.91
49825;BME280;35714;55.708;37.478;2023-05-19T00:55:59;100067.53;;;16.56;60.13
49825;BME280;35714;55.708;37.478;2023-05-19T00:58:26;100065.31;;;16.53;59.87
49825;BME280;35714;55.708;37.478;2023-05-19T01:00:59;100068.06;;;16.53;60.29
49825;BME280;35714;55.708;37.478;2023-05-19T01:03:31;100062.81;;;16.47;60.03
49825;BME280;35714;55.708;37.478;2023-05-19T01:05:59;100070.44;;;16.45;60.08
49825;BME280;35714;55.708;37.478;2023-05-19T01:08:34;100068.50;;;16.40;60.07
49825;BME280;35714;55.708;37.478;2023-05-19T01:11:02;100064.09;;;16.39;60.13
49825;BME280;35714;55.708;37.478;2023-05-19T01:13:28;100066.53;;;16.35;60.35
49825;BME280;35714;55.708;37.478;2023-05-19T01:16:09;100076.38;;;16.36;60.45
49825;BME280;35714;55.708;37.478;2023-05-19T01:18:46;100073.91;;;16.35;60.41
49825;BME280;35714;55.708;37.478;2023-05-19T01:30:26;100080.66;;;16.27;60.74
49825;BME280;35714;55.708;37.478;2023-05-19T01:32:58;100086.81;;;16.17;60.91
49825;BME280;35714;55.708;37.478;2023-05-19T01:35:25;100086.22;;;16.10;61.18
49825;BME280;35714;55.708;37.478;2023-05-19T01:37:58;100083.44;;;16.05;61.51
49825;BME280;35714;55.708;37.478;2023-05-19T01:40:26;100083.78;;;15.92;61.55
49825;BME280;35714;55.708;37.478;2023-05-19T01:42:54;100087.53;;;15.85;61.74
49825;BME280;35714;55.708;37.478;2023-05-19T01:45:21;100097.22;;;15.76;62.23
49825;BME280;35714;55.708;37.478;2023-05-19T01:47:51;100094.94;;;15.68;62.14
49825;BME280;35714;55.708;37.478;2023-05-19T01:50:17;100107.94;;;15.61;62.48
49825;BME280;35714;55.708;37.478;2023-05-19T01:52:43;100101.59;;;15.55;62.26
49825;BME280;35714;55.708;37.478;2023-05-19T01:55:09;100109.72;;;15.50;62.14
49825;BME280;35714;55.708;37.478;2023-05-19T02:00:25;100117.19;;;15.38;62.06
49825;BME280;35714;55.708;37.478;2023-05-19T02:08:19;100120.91;;;15.14;61.08
49825;BME280;35714;55.708;37.478;2023-05-19T02:10:51;100113.88;;;15.02;60.58
49825;BME280;35714;55.708;37.478;2023-05-19T02:13:23;100108.41;;;14.85;60.51
49825;BME280;35714;55.708;37.478;2023-05-19T02:15:53;100111.03;;;14.79;60.29
49825;BME280;35714;55.708;37.478;2023-05-19T02:18:23;100122.47;;;14.76;59.92
49825;BME280;35714;55.708;37.478;2023-05-19T02:20:49;100124.59;;;14.74;59.78
49825;BME280;35714;55.708;37.478;2023-05-19T02:23:15;100133.50;;;14.70;59.54
49825;BME280;35714;55.708;37.478;2023-05-19T02:25:41;100119.78;;;14.65;58.92
49825;BME280;35714;55.708;37.478;2023-05-19T02:28:07;100121.69;;;14.64;58.86
49825;BME280;35714;55.708;37.478;2023-05-19T02:30:32;100128.69;;;14.60;57.93
49825;BME280;35714;55.708;37.478;2023-05-19T02:33:00;100132.84;;;14.51;57.47
49825;BME280;35714;55.708;37.478;2023-05-19T02:35:26;100137.72;;;14.49;57.21
49825;BME280;35714;55.708;37.478;2023-05-19T02:37:53;100140.84;;;14.40;56.79
49825;BME280;35714;55.708;37.478;2023-05-19T02:40:19;100146.78;;;14.37;56.66
49825;BME280;35714;55.708;37.478;2023-05-19T02:42:46;100141.56;;;14.36;56.65
49825;BME280;35714;55.708;37.478;2023-05-19T02:45:13;100150.59;;;14.36;56.71
49825;BME280;35714;55.708;37.478;2023-05-19T02:47:40;100145.72;;;14.38;56.41
49825;BME280;35714;55.708;37.478;2023-05-19T02:50:06;100142.25;;;14.43;56.15
49825;BME280;35714;55.708;37.478;2023-05-19T02:52:32;100149.94;;;14.46;56.25
49825;BME280;35714;55.708;37.478;2023-05-19T02:54:58;100151.94;;;14.51;56.30
49825;BME280;35714;55.708;37.478;2023-05-19T02:57:24;100149.81;;;14.53;55.96
49825;BME280;35714;55.708;37.478;2023-05-19T02:59:51;100143.03;;;14.55;55.60
49825;BME280;35714;55.708;37.478;2023-05-19T03:02:17;100147.19;;;14.58;55.49
49825;BME280;35714;55.708;37.478;2023-05-19T03:04:42;100155.97;;;14.60;55.39
49825;BME280;35714;55.708;37.478;2023-05-19T03:07:09;100145.44;;;14.64;55.02
49825;BME280;35714;55.708;37.478;2023-05-19T03:09:38;100150.66;;;14.65;54.62
49825;BME280;35714;55.708;37.478;2023-05-19T03:12:04;100142.56;;;14.58;54.52
49825;BME280;35714;55.708;37.478;2023-05-19T03:14:33;100160.13;;;14.63;54.14
49825;BME280;35714;55.708;37.478;2023-05-19T03:16:59;100154.91;;;14.61;54.02
49825;BME280;35714;55.708;37.478;2023-05-19T03:19:25;100156.44;;;14.57;53.99
49825;BME280;35714;55.708;37.478;2023-05-19T03:21:51;100161.56;;;14.53;53.75
49825;BME280;35714;55.708;37.478;2023-05-19T03:24:17;100167.75;;;14.49;53.58
49825;BME280;35714;55.708;37.478;2023-05-19T03:26:43;100176.09;;;14.42;53.93
49825;BME280;35714;55.708;37.478;2023-05-19T03:29:08;100175.63;;;14.33;54.01
49825;BME280;35714;55.708;37.478;2023-05-19T03:31:36;100181.56;;;14.30;54.44
49825;BME280;35714;55.708;37.478;2023-05-19T03:34:02;100177.19;;;14.29;54.48
49825;BME280;35714;55.708;37.478;2023-05-19T03:36:28;100180.97;;;14.28;54.61
49825;BME280;35714;55.708;37.478;2023-05-19T03:38:59;100186.44;;;14.28;54.66
49825;BME280;35714;55.708;37.478;2023-05-19T03:41:25;100182.28;;;14.25;54.86
49825;BME280;35714;55.708;37.478;2023-05-19T03:43:50;100184.75;;;14.27;55.34
49825;BME280;35714;55.708;37.478;2023-05-19T03:46:16;100186.09;;;14.24;55.09
49825;BME280;35714;55.708;37.478;2023-05-19T03:49:00;100201.59;;;14.24;55.41
49825;BME280;35714;55.708;37.478;2023-05-19T03:51:44;100197.09;;;14.18;55.53
49825;BME280;35714;55.708;37.478;2023-05-19T03:54:30;100195.94;;;14.14;55.71
49825;BME280;35714;55.708;37.478;2023-05-19T03:56:56;100199.84;;;14.18;56.18
49825;BME280;35714;55.708;37.478;2023-05-19T03:59:22;100177.47;;;14.04;55.99
49825;BME280;35714;55.708;37.478;2023-05-19T04:01:49;100199.84;;;14.18;56.10
49825;BME280;35714;55.708;37.478;2023-05-19T04:04:16;100202.09;;;14.21;56.47
49825;BME280;35714;55.708;37.478;2023-05-19T04:06:44;100208.72;;;14.25;56.58
49825;BME280;35714;55.708;37.478;2023-05-19T04:09:12;100210.75;;;14.30;56.42
49825;BME280;35714;55.708;37.478;2023-05-19T04:11:39;100208.84;;;14.30;56.23
49825;BME280;35714;55.708;37.478;2023-05-19T04:14:06;100204.47;;;14.29;56.55
49825;BME280;35714;55.708;37.478;2023-05-19T04:16:31;100199.34;;;14.33;56.46
49825;BME280;35714;55.708;37.478;2023-05-19T04:18:57;100203.03;;;14.38;56.46
49825;BME280;35714;55.708;37.478;2023-05-19T04:21:23;100199.69;;;14.36;56.41
49825;BME280;35714;55.708;37.478;2023-05-19T04:23:49;100202.50;;;14.41;56.30
49825;BME280;35714;55.708;37.478;2023-05-19T04:26:15;100206.34;;;14.40;56.53
49825;BME280;35714;55.708;37.478;2023-05-19T04:28:42;100204.19;;;14.42;56.40
49825;BME280;35714;55.708;37.478;2023-05-19T04:31:10;100216.78;;;14.43;56.34
49825;BME280;35714;55.708;37.478;2023-05-19T04:33:38;100209.16;;;14.46;56.53
49825;BME280;35714;55.708;37.478;2023-05-19T04:36:07;100206.53;;;14.51;56.42
49825;BME280;35714;55.708;37.478;2023-05-19T04:38:37;100214.47;;;14.52;56.25
49825;BME280;35714;55.708;37.478;2023-05-19T04:41:05;100214.84;;;14.56;56.56
49825;BME280;35714;55.708;37.478;2023-05-19T04:43:35;100212.69;;;14.58;56.34
49825;BME280;35714;55.708;37.478;2023-05-19T04:46:02;100224.81;;;14.62;56.07
49825;BME280;35714;55.708;37.478;2023-05-19T04:48:31;100218.88;;;14.65;55.88
49825;BME280;35714;55.708;37.478;2023-05-19T04:50:58;100216.16;;;14.65;55.88
49825;BME280;35714;55.708;37.478;2023-05-19T04:53:27;100210.09;;;14.63;56.06
49825;BME280;35714;55.708;37.478;2023-05-19T04:55:54;100214.34;;;14.59;55.98
49825;BME280;35714;55.708;37.478;2023-05-19T04:58:21;100206.41;;;14.57;56.10
49825;BME280;35714;55.708;37.478;2023-05-19T05:00:51;100219.81;;;14.59;56.19
49825;BME280;35714;55.708;37.478;2023-05-19T05:03:17;100214.84;;;14.56;56.34
49825;BME280;35714;55.708;37.478;2023-05-19T05:05:43;100220.63;;;14.59;56.33
49825;BME280;35714;55.708;37.478;2023-05-19T05:08:09;100214.00;;;14.55;56.40
49825;BME280;35714;55.708;37.478;2023-05-19T05:10:39;100219.44;;;14.55;56.11
49825;BME280;35714;55.708;37.478;2023-05-19T05:13:06;100224.31;;;14.53;56.14
49825;BME280;35714;55.708;37.478;2023-05-19T05:15:32;100230.25;;;14.50;56.08
49825;BME280;35714;55.708;37.478;2023-05-19T05:18:00;100229.22;;;14.51;56.29
49825;BME280;35714;55.708;37.478;2023-05-19T05:20:26;100232.19;;;14.50;56.22
49825;BME280;35714;55.708;37.478;2023-05-19T05:22:52;100235.16;;;14.48;56.30
49825;BME280;35714;55.708;37.478;2023-05-19T05:25:19;100240.22;;;14.44;56.45
49825;BME280;35714;55.708;37.478;2023-05-19T05:27:46;100235.25;;;14.41;56.40
49825;BME280;35714;55.708;37.478;2023-05-19T05:30:12;100236.94;;;14.42;56.25
49825;BME280;35714;55.708;37.478;2023-05-19T05:32:39;100236.94;;;14.42;56.54
49825;BME280;35714;55.708;37.478;2023-05-19T05:35:14;100241.56;;;14.42;56.57
49825;BME280;35714;55.708;37.478;2023-05-19T05:37:39;100228.41;;;14.39;56.60
49825;BME280;35714;55.708;37.478;2023-05-19T05:40:06;100240.72;;;14.41;56.61
49825;BME280;35714;55.708;37.478;2023-05-19T05:42:32;100241.91;;;14.46;56.64
49825;BME280;35714;55.708;37.478;2023-05-19T05:44:58;100245.22;;;14.48;57.08
49825;BME280;35714;55.708;37.478;2023-05-19T05:47:25;100252.34;;;14.49;57.07
49825;BME280;35714;55.708;37.478;2023-05-19T05:49:51;100244.16;;;14.49;57.06
49825;BME280;35714;55.708;37.478;2023-05-19T05:52:17;100251.84;;;14.52;57.41
49825;BME280;35714;55.708;37.478;2023-05-19T05:54:46;100251.97;;;14.57;57.33
49825;BME280;35714;55.708;37.478;2023-05-19T05:57:15;100240.47;;;14.55;57.28
49825;BME280;35714;55.708;37.478;2023-05-19T05:59:41;100253.75;;;14.63;57.33
49825;BME280;35714;55.708;37.478;2023-05-19T06:02:10;100250.31;;;14.68;57.08
49825;BME280;35714;55.708;37.478;2023-05-19T06:04:37;100259.44;;;14.73;57.17
49825;BME280;35714;55.708;37.478;2023-05-19T06:07:05;100251.81;;;14.75;57.21
49825;BME280;35714;55.708;37.478;2023-05-19T06:09:34;100256.22;;;14.76;56.94
49825;BME280;35714;55.708;37.478;2023-05-19T06:12:01;100247.66;;;14.73;56.81
49825;BME280;35714;55.708;37.478;2023-05-19T06:14:32;100262.84;;;14.80;56.77
49825;BME280;35714;55.708;37.478;2023-05-19T06:17:10;100253.69;;;14.87;56.99
49825;BME280;35714;55.708;37.478;2023-05-19T06:19:35;100247.41;;;14.86;56.94
49825;BME280;35714;55.708;37.478;2023-05-19T06:22:01;100261.59;;;15.00;57.24
49825;BME280;35714;55.708;37.478;2023-05-19T06:24:28;100257.91;;;15.06;56.83
49825;BME280;35714;55.708;37.478;2023-05-19T06:26:54;100253.94;;;15.14;56.83
49825;BME280;35714;55.708;37.478;2023-05-19T06:29:20;100249.47;;;15.25;56.33
49825;BME280;35714;55.708;37.478;2023-05-19T06:31:46;100243.22;;;15.41;56.16
49825;BME280;35714;55.708;37.478;2023-05-19T06:34:15;100255.56;;;15.61;56.04
49825;BME280;35714;55.708;37.478;2023-05-19T06:36:43;100252.88;;;15.78;55.68
49825;BME280;35714;55.708;37.478;2023-05-19T06:39:09;100257.16;;;15.91;55.37
49825;BME280;35714;55.708;37.478;2023-05-19T06:41:35;100259.31;;;16.05;54.41
49825;BME280;35714;55.708;37.478;2023-05-19T06:44:02;100255.16;;;16.20;54.67
49825;BME280;35714;55.708;37.478;2023-05-19T06:46:31;100258.41;;;16.39;53.88
49825;BME280;35714;55.708;37.478;2023-05-19T06:48:57;100257.88;;;16.59;53.24
49825;BME280;35714;55.708;37.478;2023-05-19T06:51:25;100257.28;;;16.79;52.32
49825;BME280;35714;55.708;37.478;2023-05-19T06:53:54;100253.63;;;16.90;52.09
49825;BME280;35714;55.708;37.478;2023-05-19T06:56:21;100258.38;;;17.00;51.46
49825;BME280;35714;55.708;37.478;2023-05-19T06:58:48;100259.31;;;17.11;51.49
49825;BME280;35714;55.708;37.478;2023-05-19T07:01:13;100258.38;;;17.27;50.95
49825;BME280;35714;55.708;37.478;2023-05-19T07:03:45;100267.03;;;17.46;50.74
49825;BME280;35714;55.708;37.478;2023-05-19T07:06:12;100261.97;;;17.60;49.87
49825;BME280;35714;55.708;37.478;2023-05-19T07:08:38;100254.34;;;17.67;49.62
49825;BME280;35714;55.708;37.478;2023-05-19T07:11:06;100253.88;;;17.76;49.58
49825;BME280;35714;55.708;37.478;2023-05-19T07:13:31;100264.44;;;17.89;49.58
49825;BME280;35714;55.708;37.478;2023-05-19T07:15:58;100267.25;;;17.99;49.06
49825;BME280;35714;55.708;37.478;2023-05-19T07:18:26;100264.25;;;18.06;48.73
49825;BME280;35714;55.708;37.478;2023-05-19T07:20:56;100267.31;;;18.10;48.05
49825;BME280;35714;55.708;37.478;2023-05-19T07:23:22;100269.22;;;18.09;48.16
49825;BME280;35714;55.708;37.478;2023-05-19T07:25:48;100266.53;;;18.14;48.16
49825;BME280;35714;55.708;37.478;2023-05-19T07:28:14;100273.38;;;18.17;47.93
49825;BME280;35714;55.708;37.478;2023-05-19T07:30:40;100272.03;;;18.19;47.62
49825;BME280;35714;55.708;37.478;2023-05-19T07:33:05;100274.03;;;18.29;47.41
49825;BME280;35714;55.708;37.478;2023-05-19T07:35:31;100281.84;;;18.53;47.06
49825;BME280;35714;55.708;37.478;2023-05-19T07:37:57;100262.69;;;18.63;46.68
49825;BME280;35714;55.708;37.478;2023-05-19T07:40:22;100269.84;;;18.74;45.89
49825;BME280;35714;55.708;37.478;2023-05-19T07:42:48;100274.00;;;18.77;45.68
49825;BME280;35714;55.708;37.478;2023-05-19T07:45:14;100269.59;;;18.76;45.32
49825;BME280;35714;55.708;37.478;2023-05-19T07:47:41;100276.44;;;18.73;44.68
49825;BME280;35714;55.708;37.478;2023-05-19T07:50:07;100268.69;;;18.60;44.86
49825;BME280;35714;55.708;37.478;2023-05-19T07:52:33;100269.25;;;18.62;44.94
49825;BME280;35714;55.708;37.478;2023-05-19T07:54:59;100268.19;;;18.73;45.23
49825;BME280;35714;55.708;37.478;2023-05-19T07:57:24;100271.25;;;18.82;44.83
49825;BME280;35714;55.708;37.478;2023-05-19T07:59:50;100272.47;;;19.07;43.94
49825;BME280;35714;55.708;37.478;2023-05-19T08:02:16;100269.19;;;19.25;43.77
49825;BME280;35714;55.708;37.478;2023-05-19T08:04:42;100272.28;;;19.50;42.72
49825;BME280;35714;55.708;37.478;2023-05-19T08:07:07;100278.88;;;19.69;42.50
49825;BME280;35714;55.708;37.478;2023-05-19T08:09:33;100270.38;;;19.91;41.51
49825;BME280;35714;55.708;37.478;2023-05-19T08:11:59;100277.25;;;20.14;40.57
49825;BME280;35714;55.708;37.478;2023-05-19T08:14:25;100277.19;;;20.45;40.20
49825;BME280;35714;55.708;37.478;2023-05-19T08:16:51;100272.06;;;20.88;39.14
49825;BME280;35714;55.708;37.478;2023-05-19T08:19:17;100271.84;;;21.30;38.18
49825;BME280;35714;55.708;37.478;2023-05-19T08:21:43;100265.56;;;21.63;37.35
49825;BME280;35714;55.708;37.478;2023-05-19T08:24:09;100278.63;;;22.16;35.97
49825;BME280;35714;55.708;37.478;2023-05-19T08:26:34;100281.97;;;22.67;34.98
49825;BME280;35714;55.708;37.478;2023-05-19T08:29:00;100280.56;;;23.13;32.63
49825;BME280;35714;55.708;37.478;2023-05-19T08:31:26;100276.81;;;23.60;31.61
49825;BME280;35714;55.708;37.478;2023-05-19T08:33:51;100277.53;;;24.32;30.23
49825;BME280;35714;55.708;37.478;2023-05-19T08:36:17;100273.66;;;24.89;29.69
49825;BME280;35714;55.708;37.478;2023-05-19T08:38:43;100281.75;;;25.49;28.38
49825;BME280;35714;55.708;37.478;2023-05-19T08:41:09;100286.72;;;26.38;27.48
49825;BME280;35714;55.708;37.478;2023-05-19T08:43:35;100282.78;;;27.36;26.08
49825;BME280;35714;55.708;37.478;2023-05-19T08:46:02;100281.34;;;28.30;24.53
49825;BME280;35714;55.708;37.478;2023-05-19T08:48:28;100282.94;;;29.08;23.38
49825;BME280;35714;55.708;37.478;2023-05-19T08:51:05;100277.94;;;29.77;22.02
49825;BME280;35714;55.708;37.478;2023-05-19T08:53:39;100277.09;;;30.56;20.26
49825;BME280;35714;55.708;37.478;2023-05-19T08:56:10;100270.09;;;31.11;18.82
49825;BME280;35714;55.708;37.478;2023-05-19T08:58:38;100280.03;;;31.78;19.30
49825;BME280;35714;55.708;37.478;2023-05-19T09:01:06;100278.06;;;32.38;18.29
49825;BME280;35714;55.708;37.478;2023-05-19T09:03:33;100281.19;;;32.85;17.56
49825;BME280;35714;55.708;37.478;2023-05-19T09:06:04;100283.09;;;32.81;16.48
49825;BME280;35714;55.708;37.478;2023-05-19T09:08:32;100282.09;;;32.89;16.86
49825;BME280;35714;55.708;37.478;2023-05-19T09:10:57;100284.13;;;33.24;16.85
49825;BME280;35714;55.708;37.478;2023-05-19T09:13:23;100277.00;;;33.50;16.72
49825;BME280;35714;55.708;37.478;2023-05-19T09:15:49;100282.63;;;33.50;16.00
49825;BME280;35714;55.708;37.478;2023-05-19T09:18:17;100279.38;;;33.48;16.12
49825;BME280;35714;55.708;37.478;2023-05-19T09:20:43;100286.50;;;33.41;15.90
49825;BME280;35714;55.708;37.478;2023-05-19T09:23:13;100277.75;;;33.47;15.67
49825;BME280;35714;55.708;37.478;2023-05-19T09:25:50;100286.31;;;33.34;14.96
49825;BME280;35714;55.708;37.478;2023-05-19T09:28:26;100278.59;;;33.12;15.16
49825;BME280;35714;55.708;37.478;2023-05-19T09:33:32;100274.03;;;32.71;15.77
49825;BME280;35714;55.708;37.478;2023-05-19T09:35:59;100263.28;;;32.73;15.63
49825;BME280;35714;55.708;37.478;2023-05-19T09:38:26;100265.53;;;32.52;15.43
49825;BME280;35714;55.708;37.478;2023-05-19T09:40:53;100270.44;;;32.55;16.05
49825;BME280;35714;55.708;37.478;2023-05-19T09:43:20;100269.16;;;32.36;15.72
49825;BME280;35714;55.708;37.478;2023-05-19T09:45:46;100263.03;;;32.31;15.59
49825;BME280;35714;55.708;37.478;2023-05-19T09:48:13;100267.69;;;31.95;16.37
49825;BME280;35714;55.708;37.478;2023-05-19T09:50:42;100268.41;;;31.63;16.34
49825;BME280;35714;55.708;37.478;2023-05-19T09:53:12;100259.56;;;31.49;16.08
49825;BME280;35714;55.708;37.478;2023-05-19T09:55:38;100254.06;;;31.12;16.90
49825;BME280;35714;55.708;37.478;2023-05-19T09:58:05;100259.81;;;31.44;16.75
49825;BME280;35714;55.708;37.478;2023-05-19T10:00:32;100257.00;;;32.00;16.58
49825;BME280;35714;55.708;37.478;2023-05-19T10:02:59;100255.94;;;32.53;15.99
49825;BME280;35714;55.708;37.478;2023-05-19T10:05:26;100261.25;;;32.90;15.87
49825;BME280;35714;55.708;37.478;2023-05-19T10:07:53;100266.78;;;32.86;15.52
49825;BME280;35714;55.708;37.478;2023-05-19T10:10:20;100261.50;;;32.65;15.22
49825;BME280;35714;55.708;37.478;2023-05-19T10:12:47;100257.13;;;32.20;15.07
49825;BME280;35714;55.708;37.478;2023-05-19T10:15:17;100249.28;;;31.81;15.95
49825;BME280;35714;55.708;37.478;2023-05-19T10:17:44;100253.75;;;31.54;15.98
49825;BME280;35714;55.708;37.478;2023-05-19T10:20:12;100250.81;;;31.10;15.80
49825;BME280;35714;55.708;37.478;2023-05-19T10:22:40;100254.56;;;30.89;16.29
49825;BME280;35714;55.708;37.478;2023-05-19T10:25:07;100252.94;;;30.76;16.05
49825;BME280;35714;55.708;37.478;2023-05-19T10:27:36;100249.00;;;30.65;16.36
49825;BME280;35714;55.708;37.478;2023-05-19T10:30:17;100244.91;;;30.74;16.04
49825;BME280;35714;55.708;37.478;2023-05-19T10:32:45;100246.75;;;30.83;15.97
49825;BME280;35714;55.708;37.478;2023-05-19T10:40:52;100252.69;;;29.10;17.40
49825;BME280;35714;55.708;37.478;2023-05-19T10:46:33;100249.97;;;27.86;17.64
49825;BME280;35714;55.708;37.478;2023-05-19T10:48:59;100247.09;;;27.39;18.86
49825;BME280;35714;55.708;37.478;2023-05-19T10:51:32;100249.31;;;27.19;18.66
49825;BME280;35714;55.708;37.478;2023-05-19T10:54:01;100243.59;;;27.07;19.21
49825;BME280;35714;55.708;37.478;2023-05-19T10:56:31;100248.66;;;26.87;19.29
49825;BME280;35714;55.708;37.478;2023-05-19T10:59:00;100249.25;;;26.67;19.61
49825;BME280;35714;55.708;37.478;2023-05-19T11:01:30;100240.84;;;26.49;20.20
49825;BME280;35714;55.708;37.478;2023-05-19T11:03:57;100248.28;;;26.31;19.79
49825;BME280;35714;55.708;37.478;2023-05-19T11:06:33;100248.81;;;26.42;20.46
49825;BME280;35714;55.708;37.478;2023-05-19T11:09:14;100247.59;;;26.65;20.11
49825;BME280;35714;55.708;37.478;2023-05-19T11:11:50;100241.25;;;26.91;19.45
49825;BME280;35714;55.708;37.478;2023-05-19T11:14:25;100237.69;;;27.08;19.86
49825;BME280;35714;55.708;37.478;2023-05-19T11:16:56;100238.34;;;27.23;19.49
49825;BME280;35714;55.708;37.478;2023-05-19T11:19:34;100239.22;;;27.41;19.51
49825;BME280;35714;55.708;37.478;2023-05-19T11:22:11;100242.81;;;27.50;19.43
49825;BME280;35714;55.708;37.478;2023-05-19T11:24:45;100240.03;;;27.32;19.14
49825;BME280;35714;55.708;37.478;2023-05-19T11:27:31;100238.19;;;27.10;19.75
49825;BME280;35714;55.708;37.478;2023-05-19T11:32:34;100240.13;;;26.92;19.44
49825;BME280;35714;55.708;37.478;2023-05-19T11:35:03;100243.25;;;27.08;19.75
49825;BME280;35714;55.708;37.478;2023-05-19T11:37:32;100231.66;;;27.15;19.37
49825;BME280;35714;55.708;37.478;2023-05-19T11:40:05;100236.88;;;27.08;19.50
49825;BME280;35714;55.708;37.478;2023-05-19T11:42:33;100233.63;;;27.23;19.58
49825;BME280;35714;55.708;37.478;2023-05-19T11:45:03;100246.41;;;27.59;18.67
49825;BME280;35714;55.708;37.478;2023-05-19T11:47:33;100244.72;;;27.76;18.69
49825;BME280;35714;55.708;37.478;2023-05-19T11:50:00;100242.44;;;27.95;18.35
49825;BME280;35714;55.708;37.478;2023-05-19T11:52:26;100243.03;;;28.10;18.18
49825;BME280;35714;55.708;37.478;2023-05-19T11:54:53;100250.00;;;28.33;18.39
49825;BME280;35714;55.708;37.478;2023-05-19T11:57:19;100254.53;;;28.47;17.39
49825;BME280;35714;55.708;37.478;2023-05-19T11:59:45;100253.00;;;28.58;17.32
49825;BME280;35714;55.708;37.478;2023-05-19T12:04:41;100258.25;;;28.21;17.32
49825;BME280;35714;55.708;37.478;2023-05-19T12:07:07;100255.81;;;28.11;17.74
49825;BME280;35714;55.708;37.478;2023-05-19T12:09:33;100259.09;;;28.13;17.53
49825;BME280;35714;55.708;37.478;2023-05-19T12:11:59;100257.13;;;28.04;17.04
49825;BME280;35714;55.708;37.478;2023-05-19T12:14:28;100261.78;;;27.83;16.97
49825;BME280;35714;55.708;37.478;2023-05-19T12:16:54;100261.81;;;27.65;17.04
49825;BME280;35714;55.708;37.478;2023-05-19T12:19:22;100254.47;;;27.43;17.13
49825;BME280;35714;55.708;37.478;2023-05-19T12:21:48;100259.00;;;27.30;17.35
49825;BME280;35714;55.708;37.478;2023-05-19T12:24:15;100257.53;;;27.50;17.24
49825;BME280;35714;55.708;37.478;2023-05-19T12:26:41;100258.66;;;27.76;17.32
49825;BME280;35714;55.708;37.478;2023-05-19T12:29:06;100248.66;;;27.92;17.30
49825;BME280;35714;55.708;37.478;2023-05-19T12:31:33;100262.84;;;28.17;17.40
49825;BME280;35714;55.708;37.478;2023-05-19T12:33:59;100256.38;;;28.42;16.65
49825;BME280;35714;55.708;37.478;2023-05-19T12:36:26;100257.16;;;28.52;16.63
49825;BME280;35714;55.708;37.478;2023-05-19T12:38:53;100260.44;;;28.45;16.50
49825;BME280;35714;55.708;37.478;2023-05-19T12:41:20;100262.75;;;28.43;16.48
49825;BME280;35714;55.708;37.478;2023-05-19T12:43:45;100268.84;;;28.36;16.23
49825;BME280;35714;55.708;37.478;2023-05-19T12:46:11;100265.72;;;28.38;16.27
49825;BME280;35714;55.708;37.478;2023-05-19T12:48:44;100268.47;;;28.47;16.11
49825;BME280;35714;55.708;37.478;2023-05-19T12:51:17;100268.09;;;28.57;15.46
49825;BME280;35714;55.708;37.478;2023-05-19T12:53:43;100255.69;;;28.46;16.04
49825;BME280;35714;55.708;37.478;2023-05-19T12:56:13;100261.31;;;28.28;16.94
49825;BME280;35714;55.708;37.478;2023-05-19T12:58:42;100264.06;;;27.98;16.83
49825;BME280;35714;55.708;37.478;2023-05-19T13:01:17;100261.78;;;27.48;16.78
49825;BME280;35714;55.708;37.478;2023-05-19T13:03:43;100261.59;;;27.09;17.43
49825;BME280;35714;55.708;37.478;2023-05-19T13:06:09;100255.78;;;26.71;17.69
49825;BME280;35714;55.708;37.478;2023-05-19T13:08:36;100255.66;;;26.36;18.24
49825;BME280;35714;55.708;37.478;2023-05-19T13:11:03;100260.78;;;26.11;18.13
49825;BME280;35714;55.708;37.478;2023-05-19T13:13:29;100257.00;;;25.84;18.82
49825;BME280;35714;55.708;37.478;2023-05-19T13:15:55;100265.63;;;25.83;18.63
49825;BME280;35714;55.708;37.478;2023-05-19T13:18:21;100247.66;;;25.80;18.74